createdAt,value
2022-07-29T00:02:22.092Z,56.48
2022-07-29T00:04:51.850Z,56.88
2022-07-29T00:07:20.353Z,56.95
2022-07-29T00:09:51.773Z,56.66
2022-07-29T00:12:25.592Z,56.32
2022-07-29T00:14:58.033Z,56.29
2022-07-29T00:17:26.798Z,56.01
2022-07-29T00:19:57.193Z,56.60
2022-07-29T00:22:25.538Z,56.79
2022-07-29T00:24:53.814Z,56.21
2022-07-29T00:27:22.984Z,55.83
2022-07-29T00:29:51.233Z,56.17
2022-07-29T00:32:19.370Z,56.68
2022-07-29T00:35:04.902Z,56.83
2022-07-29T00:37:34.784Z,56.65
2022-07-29T00:40:02.996Z,56.87
2022-07-29T00:42:31.465Z,56.57
2022-07-29T00:44:59.977Z,56.12
2022-07-29T00:47:28.317Z,56.76
2022-07-29T00:49:56.827Z,56.45
2022-07-29T00:52:24.999Z,56.62
2022-07-29T00:54:54.922Z,56.89
2022-07-29T00:57:23.379Z,56.23
2022-07-29T00:59:51.923Z,56.87
2022-07-29T01:02:20.477Z,57.27
2022-07-29T01:04:48.718Z,58.11
2022-07-29T01:07:17.857Z,58.00
2022-07-29T01:09:48.838Z,57.14
2022-07-29T01:12:21.230Z,56.70
2022-07-29T01:14:51.143Z,58.67
2022-07-29T01:17:24.194Z,62.03
2022-07-29T01:19:59.329Z,64.59
2022-07-29T01:22:34.010Z,66.69
2022-07-29T01:25:15.154Z,67.76
2022-07-29T01:28:03.201Z,68.14
2022-07-29T01:30:34.933Z,68.28
2022-07-29T01:33:08.358Z,68.90
2022-07-29T01:35:40.846Z,69.27
2022-07-29T01:38:13.391Z,70.02
2022-07-29T01:40:47.487Z,70.89
2022-07-29T01:43:18.576Z,71.39
2022-07-29T01:45:53.075Z,72.32
2022-07-29T01:48:25.838Z,72.36
2022-07-29T01:51:00.420Z,71.05
2022-07-29T01:53:37.991Z,70.53
2022-07-29T01:56:09.080Z,71.39
2022-07-29T01:58:39.337Z,71.98
2022-07-29T02:01:11.046Z,71.46
2022-07-29T02:03:41.093Z,70.05
2022-07-29T02:06:11.787Z,70.71
2022-07-29T02:08:41.601Z,71.06
2022-07-29T02:11:11.029Z,74.33
2022-07-29T02:13:40.389Z,79.63
2022-07-29T02:16:11.999Z,82.41
2022-07-29T02:18:43.327Z,84.77
2022-07-29T02:21:14.909Z,93.06
2022-07-29T02:23:51.190Z,96.92
2022-07-29T02:26:21.731Z,100.00
2022-07-29T02:28:51.940Z,100.00
2022-07-29T02:31:26.887Z,100.00
2022-07-29T02:33:57.085Z,100.00
2022-07-29T02:36:27.211Z,100.00
2022-07-29T02:38:58.905Z,100.00
2022-07-29T02:41:31.440Z,100.00
2022-07-29T02:44:06.302Z,100.00
2022-07-29T02:46:39.140Z,100.00
2022-07-29T02:49:15.630Z,100.00
2022-07-29T02:51:47.661Z,100.00
2022-07-29T02:54:26.745Z,100.00
2022-07-29T02:56:57.115Z,100.00
2022-07-29T02:59:29.345Z,100.00
2022-07-29T03:02:01.389Z,100.00
2022-07-29T03:04:31.153Z,100.00
2022-07-29T03:07:02.430Z,100.00
2022-07-29T03:09:31.939Z,100.00
2022-07-29T03:12:01.223Z,100.00
2022-07-29T03:14:30.388Z,100.00
2022-07-29T03:17:01.460Z,100.00
2022-07-29T03:19:29.990Z,100.00
2022-07-29T03:21:59.910Z,100.00
2022-07-29T03:24:30.416Z,100.00
2022-07-29T03:26:59.251Z,100.00
2022-07-29T03:29:33.762Z,100.00
2022-07-29T03:32:07.926Z,100.00
2022-07-29T03:34:39.143Z,100.00
2022-07-29T03:37:08.091Z,100.00
2022-07-29T03:39:42.314Z,100.00
2022-07-29T03:42:14.301Z,100.00
2022-07-29T03:44:46.766Z,100.00
2022-07-29T03:47:18.767Z,100.00
2022-07-29T03:49:52.817Z,100.00
2022-07-29T03:52:21.641Z,100.00
2022-07-29T03:54:50.169Z,100.00
2022-07-29T03:57:19.902Z,100.00
2022-07-29T03:59:48.986Z,100.00
2022-07-29T04:02:22.412Z,100.00
2022-07-29T04:04:53.690Z,100.00
2022-07-29T04:07:21.953Z,100.00
2022-07-29T04:09:53.583Z,100.00
2022-07-29T04:12:22.342Z,100.00
2022-07-29T04:14:51.339Z,100.00
2022-07-29T04:17:21.140Z,100.00
2022-07-29T04:19:49.631Z,100.00
2022-07-29T04:22:17.927Z,100.00
2022-07-29T04:24:45.977Z,100.00
2022-07-29T04:27:14.185Z,100.00
2022-07-29T04:29:56.319Z,100.00
2022-07-29T04:32:28.069Z,100.00
2022-07-29T04:34:56.517Z,100.00
2022-07-29T04:37:24.911Z,100.00
2022-07-29T04:39:53.275Z,100.00
2022-07-29T04:42:27.461Z,100.00
2022-07-29T04:44:56.105Z,100.00
2022-07-29T04:47:24.266Z,100.00
2022-07-29T04:49:54.162Z,100.00
2022-07-29T04:52:22.327Z,100.00
2022-07-29T04:54:50.785Z,100.00
2022-07-29T04:57:19.182Z,100.00
2022-07-29T04:59:47.346Z,100.00
2022-07-29T05:02:15.575Z,100.00
2022-07-29T05:04:43.817Z,100.00
2022-07-29T05:07:13.582Z,100.00
2022-07-29T05:09:41.710Z,100.00
2022-07-29T05:12:10.853Z,100.00
2022-07-29T05:14:38.984Z,100.00
2022-07-29T05:17:07.119Z,100.00
2022-07-29T05:19:39.399Z,100.00
2022-07-29T05:22:08.281Z,100.00
2022-07-29T05:24:37.860Z,100.00
2022-07-29T05:27:06.190Z,100.00
2022-07-29T05:29:44.493Z,100.00
2022-07-29T05:32:14.144Z,100.00
2022-07-29T05:34:50.813Z,100.00
2022-07-29T05:37:20.672Z,100.00
2022-07-29T05:39:56.942Z,100.00
2022-07-29T05:42:26.141Z,100.00
2022-07-29T05:44:55.174Z,100.00
2022-07-29T05:47:23.822Z,100.00
2022-07-29T05:49:53.065Z,100.00
2022-07-29T05:52:21.586Z,100.00
2022-07-29T05:54:52.350Z,100.00
2022-07-29T05:57:22.031Z,100.00
2022-07-29T05:59:51.280Z,100.00
2022-07-29T06:02:20.158Z,100.00
2022-07-29T06:04:48.834Z,100.00
2022-07-29T06:07:17.384Z,100.00
2022-07-29T06:09:45.565Z,100.00
2022-07-29T06:12:15.521Z,100.00
2022-07-29T06:14:43.980Z,100.00
2022-07-29T06:17:13.046Z,100.00
2022-07-29T06:19:41.382Z,100.00
2022-07-29T06:22:09.484Z,100.00
2022-07-29T06:24:43.442Z,100.00
2022-07-29T06:27:11.769Z,100.00
2022-07-29T06:29:42.041Z,100.00
2022-07-29T06:32:10.285Z,100.00
2022-07-29T06:34:39.068Z,100.00
2022-07-29T06:37:13.209Z,100.00
2022-07-29T06:39:44.117Z,100.00
2022-07-29T06:42:12.578Z,100.00
2022-07-29T06:44:44.761Z,100.00
2022-07-29T06:47:13.576Z,100.00
2022-07-29T06:49:42.050Z,100.00
2022-07-29T06:52:10.214Z,100.00
2022-07-29T06:54:39.773Z,100.00
2022-07-29T06:57:08.265Z,100.00
2022-07-29T06:59:36.549Z,100.00
2022-07-29T07:02:06.473Z,100.00
2022-07-29T07:04:35.218Z,100.00
2022-07-29T07:07:03.668Z,100.00
2022-07-29T07:09:40.078Z,100.00
2022-07-29T07:12:09.159Z,100.00
2022-07-29T07:14:37.312Z,100.00
2022-07-29T07:17:08.164Z,100.00
2022-07-29T07:19:36.831Z,100.00
2022-07-29T07:22:05.269Z,100.00
2022-07-29T07:24:34.081Z,100.00
2022-07-29T07:27:03.032Z,100.00
2022-07-29T07:29:31.337Z,100.00
2022-07-29T07:32:01.308Z,100.00
2022-07-29T07:34:32.007Z,100.00
2022-07-29T07:37:00.222Z,100.00
2022-07-29T07:39:28.772Z,100.00
2022-07-29T07:41:57.178Z,100.00
2022-07-29T07:44:25.383Z,100.00
2022-07-29T07:46:53.646Z,100.00
2022-07-29T07:49:23.190Z,100.00
2022-07-29T07:51:53.756Z,100.00
2022-07-29T07:54:22.176Z,100.00
2022-07-29T07:56:50.873Z,100.00
2022-07-29T07:59:21.827Z,100.00
2022-07-29T08:01:55.646Z,100.00
2022-07-29T08:04:27.981Z,100.00
2022-07-29T08:06:58.648Z,100.00
2022-07-29T08:09:30.150Z,100.00
2022-07-29T08:12:00.435Z,100.00
2022-07-29T08:14:28.823Z,100.00
2022-07-29T08:16:57.058Z,100.00
2022-07-29T08:19:25.203Z,100.00
2022-07-29T08:21:54.950Z,100.00
2022-07-29T08:24:42.252Z,100.00
2022-07-29T08:27:33.475Z,100.00
2022-07-29T08:29:59.246Z,100.00
2022-07-29T08:32:52.094Z,100.00
2022-07-29T08:35:17.713Z,100.00
2022-07-29T08:37:45.814Z,100.00
2022-07-29T08:40:16.497Z,100.00
2022-07-29T08:42:45.829Z,100.00
2022-07-29T08:45:14.332Z,100.00
2022-07-29T08:47:42.821Z,100.00
2022-07-29T08:50:11.972Z,100.00
2022-07-29T08:52:41.875Z,100.00
2022-07-29T08:55:12.099Z,100.00
2022-07-29T08:57:48.768Z,100.00
2022-07-29T09:00:20.822Z,100.00
2022-07-29T09:02:53.530Z,100.00
2022-07-29T09:05:22.237Z,100.00
2022-07-29T09:07:51.172Z,100.00
2022-07-29T09:10:19.413Z,100.00
2022-07-29T09:12:49.951Z,100.00
2022-07-29T09:15:18.381Z,100.00
2022-07-29T09:17:48.225Z,100.00
2022-07-29T09:20:18.841Z,100.00
2022-07-29T09:22:50.470Z,100.00
2022-07-29T09:25:35.747Z,100.00
2022-07-29T09:28:13.555Z,100.00
2022-07-29T09:30:52.554Z,100.00
2022-07-29T09:33:21.262Z,100.00
2022-07-29T09:36:01.900Z,100.00
2022-07-29T09:38:30.775Z,100.00
2022-07-29T09:41:03.008Z,100.00
2022-07-29T09:43:36.431Z,100.00
2022-07-29T09:46:14.306Z,100.00
2022-07-29T09:48:42.503Z,100.00
2022-07-29T09:51:22.156Z,100.00
2022-07-29T09:53:53.095Z,100.00
2022-07-29T09:56:22.419Z,100.00
2022-07-29T09:59:08.198Z,100.00
2022-07-29T10:01:37.068Z,100.00
2022-07-29T10:04:09.406Z,100.00
2022-07-29T10:06:37.863Z,100.00
2022-07-29T10:09:12.642Z,99.81
2022-07-29T10:11:49.412Z,97.81
2022-07-29T10:14:20.310Z,98.30
2022-07-29T10:16:48.569Z,95.29
2022-07-29T10:19:17.153Z,91.22
2022-07-29T10:21:46.862Z,91.54
2022-07-29T10:24:15.383Z,85.59
2022-07-29T10:26:44.133Z,84.03
2022-07-29T10:29:12.346Z,82.84
2022-07-29T10:31:51.250Z,84.21
2022-07-29T10:34:26.182Z,81.69
2022-07-29T10:37:05.111Z,81.26
2022-07-29T10:39:49.715Z,81.28
2022-07-29T10:42:34.084Z,78.53
2022-07-29T10:45:05.863Z,80.46
2022-07-29T10:47:35.939Z,75.92
2022-07-29T10:50:06.132Z,73.12
2022-07-29T10:52:55.677Z,75.76
2022-07-29T10:55:35.913Z,72.75
2022-07-29T10:58:15.558Z,69.98
2022-07-29T11:00:46.763Z,67.60
2022-07-29T11:03:59.245Z,66.43
2022-07-29T11:06:47.597Z,66.49
2022-07-29T11:09:25.921Z,65.81
2022-07-29T11:12:06.808Z,65.67
2022-07-29T11:15:00.450Z,65.61
2022-07-29T11:17:37.542Z,65.50
2022-07-29T11:20:43.023Z,61.32
2022-07-29T11:23:22.454Z,60.26
2022-07-29T11:26:18.842Z,61.24
2022-07-29T11:28:54.581Z,59.74
2022-07-29T11:31:36.846Z,62.34
2022-07-29T11:34:23.177Z,59.84
2022-07-29T11:37:28.281Z,66.95
2022-07-29T11:40:13.366Z,67.37
2022-07-29T11:42:44.421Z,64.45
2022-07-29T11:48:29.166Z,59.89
2022-07-29T11:50:55.748Z,58.94
2022-07-29T11:53:29.251Z,58.79
2022-07-29T11:56:02.719Z,59.82
2022-07-29T11:58:34.242Z,60.88
2022-07-29T12:01:04.947Z,59.38
2022-07-29T12:04:06.851Z,57.16
2022-07-29T12:06:35.830Z,56.86
2022-07-29T12:09:14.765Z,58.68
2022-07-29T12:11:55.344Z,60.00
2022-07-29T12:14:30.749Z,60.17
2022-07-29T12:16:59.508Z,56.89
2022-07-29T12:19:28.689Z,56.39
2022-07-29T12:22:01.126Z,53.88
2022-07-29T12:24:45.668Z,55.59
2022-07-29T12:27:14.482Z,53.44
2022-07-29T12:29:48.785Z,54.29
2022-07-29T12:32:19.843Z,53.42
2022-07-29T12:34:48.619Z,49.56
2022-07-29T12:37:17.040Z,49.85
2022-07-29T12:39:46.752Z,53.43
2022-07-29T12:42:18.545Z,52.15
2022-07-29T12:44:51.495Z,49.53
2022-07-29T12:47:21.927Z,48.25
2022-07-29T12:49:50.611Z,49.78
2022-07-29T12:52:38.395Z,48.60
2022-07-29T12:55:09.771Z,52.62
2022-07-29T12:57:49.376Z,53.38
2022-07-29T13:00:18.750Z,53.39
2022-07-29T13:02:57.828Z,51.60
2022-07-29T13:05:26.605Z,51.55
2022-07-29T13:07:57.561Z,48.91
2022-07-29T13:10:27.407Z,49.80
2022-07-29T13:13:09.241Z,49.86
2022-07-29T13:15:38.188Z,49.80
2022-07-29T13:18:07.445Z,50.91
2022-07-29T13:20:36.438Z,51.28
2022-07-29T13:23:04.555Z,51.65
2022-07-29T13:25:35.510Z,51.23
2022-07-29T13:28:03.835Z,49.46
2022-07-29T13:30:32.160Z,47.93
2022-07-29T13:33:00.478Z,47.58
2022-07-29T13:35:30.908Z,46.43
2022-07-29T13:38:00.410Z,48.01
2022-07-29T13:40:30.535Z,48.64
2022-07-29T13:43:00.578Z,49.64
2022-07-29T13:45:29.161Z,50.52
2022-07-29T13:47:57.704Z,50.29
2022-07-29T13:50:25.851Z,51.49
2022-07-29T13:52:54.204Z,50.18
2022-07-29T13:55:25.534Z,52.01
2022-07-29T13:57:53.743Z,52.76
2022-07-29T14:00:25.111Z,53.46
2022-07-29T14:02:53.561Z,56.54
2022-07-29T14:05:21.639Z,56.82
2022-07-29T14:07:52.361Z,60.04
2022-07-29T14:10:20.736Z,59.97
2022-07-29T14:12:48.985Z,59.87
2022-07-29T14:15:17.171Z,61.36
2022-07-29T14:17:46.713Z,61.15
2022-07-29T14:20:17.170Z,62.01
2022-07-29T14:22:46.096Z,67.50
2022-07-29T14:25:15.517Z,67.63
2022-07-29T14:27:44.409Z,66.45
2022-07-29T14:30:13.382Z,66.80
2022-07-29T14:32:42.071Z,67.54
2022-07-29T14:35:12.514Z,63.93
2022-07-29T14:37:41.205Z,63.85
2022-07-29T14:40:11.490Z,67.58
2022-07-29T14:42:40.412Z,68.85
2022-07-29T14:45:10.815Z,69.98
2022-07-29T14:47:39.450Z,71.57
2022-07-29T14:50:08.688Z,68.87
2022-07-29T14:52:38.719Z,70.48
2022-07-29T14:55:19.454Z,71.20
2022-07-29T14:57:48.193Z,71.22
2022-07-29T15:00:17.361Z,71.91
2022-07-29T15:03:01.289Z,69.73
2022-07-29T15:05:30.334Z,71.10
2022-07-29T15:08:00.903Z,72.59
2022-07-29T15:10:29.713Z,73.08
2022-07-29T15:12:58.324Z,73.65
2022-07-29T15:15:26.928Z,72.58
2022-07-29T15:17:55.389Z,73.43
2022-07-29T15:20:26.337Z,75.31
2022-07-29T15:22:56.638Z,75.27
2022-07-29T15:25:26.483Z,75.89
2022-07-29T15:28:01.187Z,73.84
2022-07-29T15:30:33.389Z,73.69
2022-07-29T15:33:02.888Z,76.77
2022-07-29T15:35:31.546Z,77.55
2022-07-29T15:37:59.861Z,76.78
2022-07-29T15:40:29.991Z,80.02
2022-07-29T15:43:01.908Z,82.55
2022-07-29T15:45:32.050Z,84.98
2022-07-29T15:48:01.505Z,100.00
2022-07-29T15:50:29.773Z,100.00
2022-07-29T15:52:58.026Z,100.00
2022-07-29T15:55:26.223Z,100.00
2022-07-29T15:58:00.283Z,100.00
2022-07-29T16:00:29.543Z,100.00
2022-07-29T16:02:59.187Z,100.00
2022-07-29T16:05:29.697Z,100.00
2022-07-29T16:08:00.125Z,100.00
2022-07-29T16:10:28.538Z,100.00
2022-07-29T16:12:58.322Z,100.00
2022-07-29T16:15:26.527Z,100.00
2022-07-29T16:17:54.718Z,100.00
2022-07-29T16:20:23.600Z,100.00
2022-07-29T16:22:52.146Z,100.00
2022-07-29T16:25:20.333Z,100.00
2022-07-29T16:27:48.538Z,100.00
2022-07-29T16:30:18.380Z,100.00
2022-07-29T16:32:46.839Z,100.00
2022-07-29T16:35:15.072Z,100.00
2022-07-29T16:37:43.550Z,100.00
2022-07-29T16:40:15.396Z,100.00
2022-07-29T16:42:46.984Z,100.00
2022-07-29T16:45:16.106Z,100.00
2022-07-29T16:47:45.946Z,100.00
2022-07-29T16:50:14.357Z,100.00
2022-07-29T16:52:42.623Z,100.00
2022-07-29T16:55:11.011Z,100.00
2022-07-29T16:57:39.321Z,100.00
2022-07-29T17:00:08.774Z,100.00
2022-07-29T17:02:38.874Z,100.00
2022-07-29T17:05:11.058Z,100.00
2022-07-29T17:07:39.469Z,100.00
2022-07-29T17:10:09.835Z,100.00
2022-07-29T17:12:39.227Z,100.00
2022-07-29T17:15:09.510Z,100.00
2022-07-29T17:17:56.369Z,100.00
2022-07-29T17:20:27.521Z,100.00
2022-07-29T17:22:56.388Z,100.00
2022-07-29T17:25:24.932Z,100.00
2022-07-29T17:27:57.530Z,100.00
2022-07-29T17:30:28.866Z,100.00
2022-07-29T17:32:57.143Z,100.00
2022-07-29T17:35:40.805Z,100.00
2022-07-29T17:38:09.322Z,100.00
2022-07-29T17:40:37.537Z,100.00
2022-07-29T17:43:05.688Z,100.00
2022-07-29T17:45:49.362Z,100.00
2022-07-29T17:48:18.986Z,100.00
2022-07-29T17:50:49.516Z,100.00
2022-07-29T17:53:18.265Z,100.00
2022-07-29T17:55:48.418Z,100.00
2022-07-29T17:58:17.673Z,100.00
2022-07-29T18:00:46.351Z,100.00
2022-07-29T18:03:15.092Z,100.00
2022-07-29T18:05:43.848Z,100.00
2022-07-29T18:08:14.532Z,100.00
2022-07-29T18:10:43.446Z,100.00
2022-07-29T18:13:12.863Z,100.00
2022-07-29T18:15:44.458Z,100.00
2022-07-29T18:18:13.203Z,100.00
2022-07-29T18:20:42.996Z,100.00
2022-07-29T18:23:12.035Z,100.00
2022-07-29T18:25:41.887Z,100.00
2022-07-29T18:28:10.481Z,100.00
2022-07-29T18:30:38.880Z,100.00
2022-07-29T18:33:24.692Z,100.00
2022-07-29T18:36:10.608Z,100.00
2022-07-29T18:38:40.280Z,100.00
2022-07-29T18:41:10.379Z,99.75
2022-07-29T18:43:38.536Z,100.00
2022-07-29T18:46:07.148Z,99.62
2022-07-29T18:48:36.302Z,99.82
2022-07-29T18:51:09.336Z,99.87
2022-07-29T18:53:37.967Z,100.00
2022-07-29T18:56:06.310Z,100.00
2022-07-29T18:58:38.454Z,99.86
2022-07-29T19:01:06.624Z,100.00
2022-07-29T19:03:35.006Z,100.00
2022-07-29T19:06:03.243Z,100.00
2022-07-29T19:08:32.445Z,100.00
2022-07-29T19:11:01.679Z,100.00
2022-07-29T19:13:30.086Z,100.00
2022-07-29T19:15:59.911Z,100.00
2022-07-29T19:18:28.031Z,100.00
2022-07-29T19:20:56.164Z,100.00
2022-07-29T19:23:24.490Z,100.00
2022-07-29T19:25:53.395Z,100.00
2022-07-29T19:28:22.176Z,100.00
2022-07-29T19:30:50.676Z,100.00
2022-07-29T19:33:21.187Z,100.00
2022-07-29T19:35:54.564Z,100.00
2022-07-29T19:38:23.546Z,100.00
2022-07-29T19:40:52.046Z,100.00
2022-07-29T19:43:51.368Z,100.00
2022-07-29T19:46:08.707Z,100.00
2022-07-29T19:48:38.319Z,100.00
2022-07-29T19:51:08.122Z,100.00
2022-07-29T19:53:39.864Z,100.00
2022-07-29T19:56:09.150Z,100.00
2022-07-29T19:58:37.547Z,100.00
2022-07-29T20:01:10.241Z,100.00
2022-07-29T20:03:42.356Z,100.00
2022-07-29T20:06:11.420Z,100.00
2022-07-29T20:08:39.814Z,100.00
2022-07-29T20:11:07.990Z,100.00
2022-07-29T20:13:36.071Z,100.00
2022-07-29T20:16:06.679Z,100.00
2022-07-29T20:18:35.394Z,100.00
2022-07-29T20:21:05.153Z,100.00
2022-07-29T20:23:33.931Z,100.00
2022-07-29T20:26:03.443Z,100.00
2022-07-29T20:28:33.221Z,100.00
2022-07-29T20:31:02.243Z,100.00
2022-07-29T20:33:30.539Z,100.00
2022-07-29T20:35:58.779Z,100.00
2022-07-29T20:38:30.496Z,100.00
2022-07-29T20:40:59.037Z,100.00
2022-07-29T20:43:27.773Z,100.00
2022-07-29T20:45:55.947Z,100.00
2022-07-29T20:48:24.243Z,100.00
2022-07-29T20:50:53.086Z,100.00
2022-07-29T20:53:21.756Z,100.00
2022-07-29T20:55:51.534Z,100.00
2022-07-29T20:58:20.033Z,100.00
2022-07-29T21:00:48.508Z,100.00
2022-07-29T21:03:18.503Z,100.00
2022-07-29T21:05:46.668Z,100.00
2022-07-29T21:08:15.416Z,100.00
2022-07-29T21:10:43.864Z,100.00
2022-07-29T21:13:14.322Z,100.00
2022-07-29T21:15:45.865Z,100.00
2022-07-29T21:18:27.427Z,100.00
2022-07-29T21:20:58.265Z,100.00
2022-07-29T21:23:27.282Z,100.00
2022-07-29T21:25:57.707Z,100.00
2022-07-29T21:28:30.795Z,100.00
2022-07-29T21:31:00.771Z,100.00
2022-07-29T21:33:30.542Z,100.00
2022-07-29T21:36:20.326Z,100.00
2022-07-29T21:38:47.318Z,100.00
2022-07-29T21:41:16.034Z,100.00
2022-07-29T21:43:46.581Z,100.00
2022-07-29T21:46:16.882Z,100.00
2022-07-29T21:48:45.264Z,100.00
2022-07-29T21:51:13.897Z,100.00
2022-07-29T21:53:44.049Z,100.00
2022-07-29T21:56:14.666Z,100.00
2022-07-29T21:58:43.520Z,100.00
2022-07-29T22:01:13.287Z,100.00
2022-07-29T22:03:42.057Z,100.00
2022-07-29T22:06:11.332Z,100.00
2022-07-29T22:08:48.122Z,100.00
2022-07-29T22:11:16.596Z,100.00
2022-07-29T22:13:44.708Z,100.00
2022-07-29T22:16:15.410Z,100.00
2022-07-29T22:18:46.786Z,100.00
2022-07-29T22:21:15.451Z,100.00
2022-07-29T22:23:43.640Z,100.00
2022-07-29T22:26:12.078Z,100.00
2022-07-29T22:28:40.566Z,100.00
2022-07-29T22:31:09.100Z,100.00
2022-07-29T22:33:39.335Z,100.00
2022-07-29T22:36:08.788Z,100.00
2022-07-29T22:38:36.966Z,100.00
2022-07-29T22:41:06.521Z,100.00
2022-07-29T22:43:35.285Z,100.00
2022-07-29T22:46:03.423Z,100.00
2022-07-29T22:48:31.683Z,100.00
2022-07-29T22:51:01.562Z,100.00
2022-07-29T22:53:29.741Z,100.00
2022-07-29T22:55:57.891Z,100.00
2022-07-29T22:58:27.411Z,100.00
2022-07-29T23:00:55.721Z,100.00
2022-07-29T23:03:24.204Z,100.00
2022-07-29T23:05:53.661Z,100.00
2022-07-29T23:08:23.190Z,100.00
2022-07-29T23:10:51.509Z,100.00
2022-07-29T23:13:20.129Z,100.00
2022-07-29T23:15:48.477Z,100.00
2022-07-29T23:18:17.054Z,100.00
2022-07-29T23:20:45.577Z,100.00
2022-07-29T23:23:14.317Z,100.00
2022-07-29T23:25:44.728Z,100.00
2022-07-29T23:28:13.364Z,100.00
2022-07-29T23:30:41.931Z,100.00
2022-07-29T23:33:10.387Z,100.00
2022-07-29T23:35:38.758Z,100.00
2022-07-29T23:38:07.898Z,100.00
2022-07-29T23:40:36.015Z,100.00
2022-07-29T23:43:08.579Z,100.00
2022-07-29T23:45:44.667Z,100.00
2022-07-29T23:48:16.754Z,100.00
2022-07-29T23:50:44.869Z,100.00
2022-07-29T23:53:13.443Z,100.00
2022-07-29T23:55:41.627Z,100.00
2022-07-29T23:58:11.625Z,100.00
